Time;durP1;ratioP1;P1;durP2;ratioP2;P2;SDS_P1;SDS_P2;PMS_P1;PMS_P2;Temp;Humidity;BMP_temperature;BMP_pressure;BME280_temperature;BME280_humidity;BME280_pressure;Samples;Min_cycle;Max_cycle;Signal;HPM_P1;HPM_P2
2023/10/12 00:03:12;;;;;;;4.03;2.50;;;16.50;1.00;;;;;;10303654;28;20200;-80
2023/10/12 00:08:34;;;;;;;2.80;2.05;;;16.20;1.00;;;;;;10318066;28;20275;-79
2023/10/12 00:13:55;;;;;;;2.50;1.88;;;16.00;1.00;;;;;;10291930;28;20201;-79
2023/10/12 00:19:17;;;;;;;3.42;2.17;;;15.90;39.00;;;;;;10290790;28;20213;-79
2023/10/12 00:24:38;;;;;;;2.83;1.30;;;15.70;45.10;;;;;;10318506;28;20193;-79
2023/10/12 00:30:04;;;;;;;2.28;1.30;;;;;;;;;;10318283;28;20239;-79
2023/10/12 00:35:29;;;;;;;1.27;1.17;;;;;;;;;;10317617;28;20243;-79
2023/10/12 00:41:04;;;;;;;1.40;1.30;;;15.20;86.00;;;;;;10304009;28;20425;-80
2023/10/12 00:51:52;;;;;;;2.45;1.10;;;15.10;99.90;;;;;;10288480;28;20617;-79
2023/10/12 00:57:13;;;;;;;1.50;1.00;;;15.10;99.90;;;;;;10282034;28;20208;-79
2023/10/12 01:02:39;;;;;;;1.13;0.90;;;15.00;99.90;;;;;;10303221;28;20199;-79
2023/10/12 01:08:02;;;;;;;2.42;1.00;;;15.00;99.90;;;;;;10299488;28;20531;-79
2023/10/12 01:13:30;;;;;;;2.25;0.85;;;14.90;99.90;;;;;;10277793;28;20205;-79
2023/10/12 01:19:05;;;;;;;1.70;0.90;;;14.80;99.90;;;;;;10316151;28;20206;-80
2023/10/12 01:24:30;;;;;;;4.03;0.98;;;14.80;99.90;;;;;;10288694;28;20353;-79
2023/10/12 01:29:52;;;;;;;0.52;0.50;;;14.70;99.90;;;;;;10293786;28;20226;-79
2023/10/12 01:35:16;;;;;;;0.55;0.55;;;14.70;99.90;;;;;;10277790;28;20269;-79
2023/10/12 01:46:08;;;;;;;1.23;0.50;;;14.70;99.90;;;;;;10315438;28;20189;-79
2023/10/12 01:51:30;;;;;;;0.73;0.68;;;14.70;99.90;;;;;;10294662;28;20222;-79
2023/10/12 01:56:52;;;;;;;3.58;0.90;;;14.70;99.90;;;;;;10290988;28;20204;-79
2023/10/12 02:02:14;;;;;;;2.85;0.47;;;14.70;99.90;;;;;;10303523;28;20348;-79
2023/10/12 02:07:35;;;;;;;0.57;0.50;;;14.70;99.90;;;;;;10300456;28;20209;-79
2023/10/12 02:12:56;;;;;;;1.15;1.00;;;14.60;99.90;;;;;;10313419;28;20217;-79
2023/10/12 02:18:19;;;;;;;1.70;1.02;;;14.60;99.90;;;;;;10300257;28;20210;-79
2023/10/12 02:24:11;;;;;;;1.20;1.10;;;14.60;99.90;;;;;;10299772;28;20215;-80
2023/10/12 02:29:25;;;;;;;2.22;1.77;;;14.60;99.90;;;;;;10299205;28;20249;-79
2023/10/12 02:34:46;;;;;;;1.70;0.90;;;14.50;99.90;;;;;;10313588;28;20310;-79
2023/10/12 02:40:09;;;;;;;1.15;1.05;;;14.50;99.90;;;;;;10312805;28;20219;-79
2023/10/12 02:45:33;;;;;;;31.65;28.75;;;14.60;99.90;;;;;;10299547;28;20299;-79
2023/10/12 02:50:58;;;;;;;6.10;3.47;;;14.60;99.90;;;;;;10285558;28;20237;-79
2023/10/12 02:56:24;;;;;;;1.67;1.38;;;14.50;99.90;;;;;;10273240;29;20197;-79
2023/10/12 03:01:49;;;;;;;1.83;1.33;;;14.50;99.90;;;;;;10309738;28;20220;-79
2023/10/12 03:07:13;;;;;;;5.15;2.60;;;14.50;99.90;;;;;;10313032;28;20258;-79
2023/10/12 03:12:35;;;;;;;1.77;1.35;;;14.50;99.90;;;;;;10311783;28;20247;-80
2023/10/12 03:17:58;;;;;;;1.63;0.70;;;14.40;99.90;;;;;;10312547;28;20223;-79
2023/10/12 03:23:19;;;;;;;1.25;0.80;;;14.40;99.90;;;;;;10298589;28;20211;-79
2023/10/12 03:28:44;;;;;;;0.50;0.50;;;14.40;99.90;;;;;;10300118;28;20222;-79
2023/10/12 03:34:16;;;;;;;0.60;0.60;;;14.40;99.90;;;;;;10313529;28;20235;-79
2023/10/12 03:39:59;;;;;;;0.47;0.47;;;14.40;99.90;;;;;;10319393;28;20262;-79
2023/10/12 03:45:33;;;;;;;0.73;0.63;;;14.30;99.90;;;;;;10319375;28;20216;-79
2023/10/12 03:50:58;;;;;;;1.40;0.50;;;14.30;99.90;;;;;;10304623;28;20311;-80
2023/10/12 03:56:22;;;;;;;0.33;0.33;;;14.30;99.90;;;;;;10305869;28;20207;-79
2023/10/12 04:01:43;;;;;;;3.05;0.65;;;14.40;99.90;;;;;;10304438;28;20389;-79
2023/10/12 04:07:16;;;;;;;0.47;0.47;;;14.30;99.90;;;;;;10305399;28;20211;-79
2023/10/12 04:12:49;;;;;;;1.27;0.57;;;14.30;99.90;;;;;;10318146;28;20236;-79
2023/10/12 04:18:14;;;;;;;0.52;0.52;;;14.30;99.90;;;;;;10318191;28;20255;-79
2023/10/12 04:24:27;;;;;;;2.13;0.68;;;14.40;99.90;;;;;;10317566;28;20248;-79
2023/10/12 04:29:31;;;;;;;0.68;0.40;;;14.20;99.90;;;;;;10301798;28;20233;-79
2023/10/12 04:34:52;;;;;;;3.67;0.68;;;14.10;99.90;;;;;;10291489;28;20233;-79
2023/10/12 04:41:22;;;;;;;1.27;0.63;;;13.90;99.90;;;;;;10275093;28;20216;-79
2023/10/12 04:51:40;;;;;;;3.83;1.17;;;;;;;;;;10290556;28;20241;-79
2023/10/12 05:08:09;;;;;;;1.77;0.93;;;;;;;;;;10316796;28;20205;-79
2023/10/12 05:13:33;;;;;;;3.93;1.10;;;;;;;;;;10316309;28;20216;-79
2023/10/12 05:18:58;;;;;;;4.60;1.40;;;;;;;;;;10315804;28;20469;-79
2023/10/12 05:24:23;;;;;;;4.57;1.13;;;;;;;;;;10316164;28;20573;-79
2023/10/12 05:29:52;;;;;;;5.20;1.30;;;;;;;;;;10314547;28;20239;-79
2023/10/12 05:35:16;;;;;;;3.77;1.50;;;12.50;1.00;;;;;;10315600;28;20249;-80
2023/10/12 05:40:42;;;;;;;8.87;2.27;;;12.40;6.60;;;;;;10301197;28;20216;-80
2023/10/12 05:46:09;;;;;;;4.53;1.40;;;12.50;3.10;;;;;;10329105;28;20240;-80
2023/10/12 05:51:31;;;;;;;5.50;1.70;;;12.30;1.00;;;;;;10283467;28;20227;-80
2023/10/12 05:56:52;;;;;;;7.13;1.40;;;12.30;1.00;;;;;;10273540;28;20201;-79
2023/10/12 06:02:17;;;;;;;5.57;1.30;;;12.40;1.00;;;;;;10311927;28;20291;-79
2023/10/12 06:07:39;;;;;;;9.80;2.00;;;12.40;1.00;;;;;;10313693;28;20207;-79
2023/10/12 06:13:03;;;;;;;8.23;2.03;;;12.50;1.00;;;;;;10287073;28;20509;-80
2023/10/12 06:18:30;;;;;;;8.43;1.73;;;12.40;1.00;;;;;;10313338;28;20392;-79
2023/10/12 06:23:52;;;;;;;7.53;2.23;;;;;;;;;;10313461;28;20213;-79
2023/10/12 06:29:24;;;;;;;9.97;1.57;;;12.40;1.00;;;;;;10313096;28;20248;-80
2023/10/12 06:35:03;;;;;;;8.27;2.33;;;12.50;1.00;;;;;;10299516;28;20240;-79
2023/10/12 06:45:55;;;;;;;7.97;2.27;;;12.40;1.00;;;;;;10298792;28;20199;-79
2023/10/12 06:51:18;;;;;;;10.57;2.20;;;12.40;1.00;;;;;;10274420;28;20223;-79
2023/10/12 06:56:40;;;;;;;11.53;1.87;;;12.40;1.00;;;;;;10282677;28;20279;-79
2023/10/12 07:02:10;;;;;;;8.80;2.23;;;12.60;1.00;;;;;;10297357;28;20216;-79
2023/10/12 07:07:43;;;;;;;6.60;1.80;;;12.60;1.00;;;;;;10310214;28;20200;-79
2023/10/12 07:13:09;;;;;;;11.00;2.17;;;12.90;1.00;;;;;;10309124;28;20594;-80
2023/10/12 07:18:34;;;;;;;13.93;3.00;;;13.20;99.90;;;;;;10324934;28;20235;-82
2023/10/12 07:23:56;;;;;;;12.20;2.53;;;13.40;99.90;;;;;;10350726;28;20409;-82
2023/10/12 07:29:35;;;;;;;8.67;2.30;;;13.40;1.00;;;;;;10348407;28;20266;-81
2023/10/12 07:34:58;;;;;;;15.87;2.57;;;13.40;99.90;;;;;;10352684;28;20255;-83
2023/10/12 07:40:22;;;;;;;13.83;2.63;;;13.60;99.90;;;;;;10324058;28;20210;-78
2023/10/12 07:45:48;;;;;;;12.70;2.95;;;13.90;1.00;;;;;;10342555;28;20232;-86
2023/10/12 07:51:59;;;;;;;11.15;2.53;;;14.50;1.00;;;;;;10306964;28;20264;-81
2023/10/12 07:57:01;;;;;;;14.43;5.57;;;14.80;99.90;;;;;;10348615;28;20218;-82
2023/10/12 08:08:33;;;;;;;9.10;2.15;;;17.40;1.00;;;;;;10252082;29;20227;-81
2023/10/12 08:13:55;;;;;;;8.05;2.67;;;17.30;1.00;;;;;;10254127;29;20203;-80
2023/10/12 08:19:27;;;;;;;10.52;2.00;;;;;;;;;;10245832;28;20293;-82
2023/10/12 08:24:52;;;;;;;7.35;2.33;;;;;;;;;;10269213;29;20214;-80
2023/10/12 08:30:22;;;;;;;8.70;2.20;;;;;;;;;;10268831;29;20242;-81
2023/10/12 08:52:20;;;;;;;9.43;2.92;;;;;;;;;;10343906;28;20258;-79
2023/10/12 08:57:43;;;;;;;14.15;6.70;;;;;;;;;;10351939;28;20227;-81
2023/10/12 09:03:08;;;;;;;14.18;4.70;;;;;;;;;;10353465;28;20201;-80
2023/10/12 09:13:51;;;;;;;11.88;4.90;;;;;;;;;;10352038;28;20517;-80
2023/10/12 09:19:28;;;;;;;13.00;2.47;;;;;;;;;;10351107;28;20448;-80
2023/10/12 09:24:51;;;;;;;23.17;7.40;;;;;;;;;;10350860;28;20226;-79
2023/10/12 09:30:15;;;;;;;14.63;2.92;;;;;;;;;;10335942;28;20222;-80
2023/10/12 09:35:41;;;;;;;9.00;2.40;;;;;;;;;;10351955;28;20222;-78
2023/10/12 09:41:03;;;;;;;8.98;2.88;;;;;;;;;;10317948;28;20559;-84
2023/10/12 09:46:27;;;;;;;14.75;3.40;;;;;;;;;;10310008;28;20370;-80
2023/10/12 09:51:54;;;;;;;13.35;2.00;;;;;;;;;;10331091;28;20226;-80
2023/10/12 09:57:23;;;;;;;10.52;2.17;;;;;;;;;;10347917;28;20199;-80
2023/10/12 10:02:49;;;;;;;8.55;1.95;;;;;;;;;;10350255;28;20545;-79
2023/10/12 10:08:10;;;;;;;6.35;2.28;;;;;;;;;;10344963;28;20204;-80
2023/10/12 10:13:47;;;;;;;9.30;1.85;;;;;;;;;;10330914;28;20526;-81
2023/10/12 10:19:16;;;;;;;5.30;1.75;;;;;;;;;;10335325;28;20214;-82
2023/10/12 10:24:43;;;;;;;6.73;1.97;;;;;;;;;;10303720;28;20203;-82
2023/10/12 10:30:36;;;;;;;6.63;1.95;;;;;;;;;;10307668;28;20554;-82
2023/10/12 10:36:24;;;;;;;6.50;1.77;;;;;;;;;;10298055;28;20241;-80
2023/10/12 10:41:56;;;;;;;4.32;1.50;;;;;;;;;;10320084;28;20281;-79
2023/10/12 10:47:21;;;;;;;7.82;4.10;;;;;;;;;;10326147;28;20227;-78
2023/10/12 10:52:44;;;;;;;4.70;1.92;;;;;;;;;;10329070;28;20230;-80
2023/10/12 10:58:07;;;;;;;7.97;1.90;;;;;;;;;;10322546;28;20235;-80
2023/10/12 11:03:34;;;;;;;6.90;2.60;;;;;;;;;;10349683;28;20193;-79
2023/10/12 11:09:06;;;;;;;7.80;1.73;;;;;;;;;;10346571;28;20282;-78
2023/10/12 11:14:35;;;;;;;8.07;2.17;;;;;;;;;;10346175;28;20215;-80
2023/10/12 11:19:58;;;;;;;8.05;2.08;;;;;;;;;;10350647;28;20225;-79
2023/10/12 11:25:22;;;;;;;7.85;2.00;;;;;;;;;;10333685;28;20402;-80
2023/10/12 11:31:07;;;;;;;6.25;1.65;;;;;;;;;;10333175;28;20237;-79
2023/10/12 11:36:29;;;;;;;9.45;2.22;;;;;;;;;;10331259;28;20320;-80
2023/10/12 11:42:12;;;;;;;5.82;1.80;;;;;;;;;;10347556;28;20278;-78
2023/10/12 11:47:41;;;;;;;6.70;1.58;;;;;;;;;;10347242;28;20322;-79
2023/10/12 11:53:03;;;;;;;5.95;1.35;;;;;;;;;;10347747;28;20226;-79
2023/10/12 11:58:25;;;;;;;10.82;1.52;;;;;;;;;;10353787;28;20255;-80
2023/10/12 12:03:54;;;;;;;3.33;1.10;;;;;;;;;;10355631;28;20233;-79
2023/10/12 12:09:17;;;;;;;4.90;1.38;;;;;;;;;;10353371;28;20289;-78
2023/10/12 12:14:40;;;;;;;4.50;1.17;;;;;;;;;;10345130;28;20210;-79
2023/10/12 12:20:07;;;;;;;7.05;1.63;;;;;;;;;;10338383;28;20211;-78
2023/10/12 12:25:38;;;;;;;8.18;1.95;;;;;;;;;;10340160;28;20291;-82
2023/10/12 12:31:04;;;;;;;6.82;1.73;;;;;;;;;;10299935;28;20243;-80
2023/10/12 12:36:26;;;;;;;5.50;1.67;;;;;;;;;;10301712;28;20250;-81
2023/10/12 12:41:48;;;;;;;6.35;1.90;;;;;;;;;;10312386;28;20363;-77
2023/10/12 12:47:11;;;;;;;6.93;1.92;;;;;;;;;;10331081;28;20199;-80
2023/10/12 12:52:32;;;;;;;8.25;1.77;;;;;;;;;;10335458;28;20239;-78
2023/10/12 12:57:58;;;;;;;7.15;1.52;;;;;;;;;;10344017;28;20509;-80
2023/10/12 13:03:20;;;;;;;6.07;1.75;;;;;;;;;;10336093;28;20213;-79
2023/10/12 13:08:42;;;;;;;7.53;2.05;;;;;;;;;;10352210;28;20491;-80
2023/10/12 13:14:08;;;;;;;6.75;1.77;;;15.70;1.00;;;;;;10349328;28;20307;-79
2023/10/12 13:19:32;;;;;;;5.63;1.05;;;15.70;1.00;;;;;;10371007;28;20673;-81
2023/10/12 13:24:56;;;;;;;4.45;1.50;;;15.90;1.00;;;;;;10367182;28;20237;-83
2023/10/12 13:30:18;;;;;;;8.23;2.15;;;15.60;1.00;;;;;;10365191;28;20217;-82
2023/10/12 13:41:04;;;;;;;7.43;1.60;;;15.30;1.00;;;;;;10336023;28;20459;-80
2023/10/12 13:46:26;;;;;;;7.85;1.58;;;15.20;1.00;;;;;;10311370;28;20218;-80
2023/10/12 13:51:48;;;;;;;7.13;1.60;;;15.70;1.00;;;;;;10328560;28;20413;-80
2023/10/12 13:57:11;;;;;;;5.88;1.50;;;16.80;1.00;;;;;;10336801;28;20197;-80
2023/10/12 14:02:33;;;;;;;8.02;1.65;;;16.90;1.00;;;;;;10341454;28;20210;-80
2023/10/12 14:08:01;;;;;;;10.60;3.35;;;16.30;1.00;;;;;;10338467;28;20290;-79
2023/10/12 14:13:22;;;;;;;6.13;1.77;;;15.50;1.00;;;;;;10346294;28;20275;-79
2023/10/12 14:18:44;;;;;;;7.10;2.00;;;15.00;1.00;;;;;;10359461;28;20312;-79
2023/10/12 14:24:07;;;;;;;8.05;1.50;;;14.80;1.00;;;;;;10319508;28;20209;-78
2023/10/12 14:29:29;;;;;;;9.57;1.90;;;14.60;1.00;;;;;;10335645;28;20232;-81
2023/10/12 14:34:51;;;;;;;7.23;1.67;;;14.60;1.00;;;;;;10333392;28;20265;-78
2023/10/12 14:40:19;;;;;;;8.85;2.47;;;14.60;1.00;;;;;;10312912;28;20209;-78
2023/10/12 14:45:49;;;;;;;9.30;1.70;;;14.50;1.00;;;;;;10344799;28;20509;-79
2023/10/12 14:51:17;;;;;;;14.63;2.90;;;14.40;1.00;;;;;;10341711;28;20224;-76
2023/10/12 14:56:42;;;;;;;7.90;1.80;;;14.20;1.00;;;;;;10347485;28;20220;-77
2023/10/12 15:02:09;;;;;;;8.65;2.17;;;14.10;1.00;;;;;;10344166;28;20391;-76
2023/10/12 15:07:31;;;;;;;6.50;1.85;;;14.10;1.00;;;;;;10347340;28;20216;-79
2023/10/12 15:12:52;;;;;;;8.67;1.83;;;14.00;1.00;;;;;;10347239;28;20233;-78
2023/10/12 15:18:14;;;;;;;11.93;2.37;;;14.00;1.00;;;;;;10338945;28;20201;-78
2023/10/12 15:23:36;;;;;;;6.47;1.50;;;14.00;1.00;;;;;;10318339;28;20201;-77
2023/10/12 15:28:57;;;;;;;8.13;2.50;;;13.90;1.00;;;;;;10338604;28;20246;-77
2023/10/12 15:34:18;;;;;;;7.18;2.03;;;13.80;1.00;;;;;;10340598;28;20531;-78
2023/10/12 15:39:42;;;;;;;9.83;2.47;;;13.70;1.00;;;;;;10361841;28;20213;-78
2023/10/12 15:45:04;;;;;;;10.17;2.77;;;13.60;1.00;;;;;;10346731;28;20270;-77
2023/10/12 15:50:25;;;;;;;11.17;2.13;;;13.50;1.00;;;;;;10336914;28;20295;-77
2023/10/12 15:55:47;;;;;;;9.10;2.40;;;13.50;1.00;;;;;;10321798;28;20213;-77
2023/10/12 16:01:11;;;;;;;9.80;1.97;;;13.40;1.00;;;;;;10358307;28;20496;-77
2023/10/12 16:06:34;;;;;;;6.67;2.13;;;13.30;58.70;;;;;;10359198;28;20211;-77
2023/10/12 16:11:55;;;;;;;10.87;2.43;;;13.30;93.90;;;;;;10358944;28;20251;-77
2023/10/12 16:17:21;;;;;;;8.33;2.33;;;13.20;99.90;;;;;;10356317;28;20208;-77
2023/10/12 16:22:43;;;;;;;15.43;2.13;;;13.20;99.90;;;;;;10336406;28;20200;-77
2023/10/12 16:28:06;;;;;;;11.80;1.98;;;13.20;99.90;;;;;;10358916;28;20488;-77
2023/10/12 16:33:27;;;;;;;5.90;2.17;;;13.20;99.90;;;;;;10357210;28;20254;-77
2023/10/12 16:38:50;;;;;;;8.27;2.20;;;13.10;99.90;;;;;;10358244;28;20223;-77
2023/10/12 16:44:12;;;;;;;6.47;2.10;;;13.10;99.90;;;;;;10357314;28;20197;-77
2023/10/12 16:49:33;;;;;;;7.30;2.00;;;13.00;99.90;;;;;;10357546;28;20517;-77
2023/10/12 16:54:54;;;;;;;9.63;2.63;;;13.00;1.00;;;;;;10344323;28;20292;-77
2023/10/12 17:00:16;;;;;;;13.37;2.80;;;13.00;1.00;;;;;;10343980;28;20216;-77
2023/10/12 17:05:38;;;;;;;7.63;3.10;;;13.00;1.00;;;;;;10356154;28;20211;-77
2023/10/12 17:11:00;;;;;;;7.97;2.90;;;12.90;1.00;;;;;;10357143;28;20229;-77
2023/10/12 17:16:21;;;;;;;7.43;2.20;;;12.90;1.00;;;;;;10341324;28;20578;-77
2023/10/12 17:21:43;;;;;;;11.47;2.80;;;12.80;1.00;;;;;;10336632;28;20231;-77
2023/10/12 17:27:05;;;;;;;10.07;2.40;;;12.80;1.00;;;;;;10326152;28;20197;-77
2023/10/12 17:32:26;;;;;;;9.67;3.37;;;12.80;1.00;;;;;;10352023;28;20303;-77
2023/10/12 17:37:47;;;;;;;7.83;2.23;;;12.90;1.00;;;;;;10342220;28;20535;-77
2023/10/12 17:43:09;;;;;;;6.60;2.90;;;12.90;1.00;;;;;;10356143;28;20191;-77
2023/10/12 17:48:31;;;;;;;8.13;2.30;;;12.90;1.00;;;;;;10347659;28;20200;-77
2023/10/12 17:53:52;;;;;;;8.60;2.37;;;12.80;1.00;;;;;;10348748;28;20408;-76
2023/10/12 17:59:16;;;;;;;10.10;3.83;;;12.70;1.00;;;;;;10334952;28;20197;-77
2023/10/12 18:04:37;;;;;;;12.30;3.23;;;12.60;1.00;;;;;;10347965;28;20198;-77
2023/10/12 18:09:58;;;;;;;9.07;3.40;;;12.50;1.00;;;;;;10333185;28;20204;-77
2023/10/12 18:15:20;;;;;;;7.67;2.90;;;12.40;1.00;;;;;;10355900;28;20250;-77
2023/10/12 18:20:45;;;;;;;9.03;3.10;;;12.30;1.00;;;;;;10354414;28;20200;-77
2023/10/12 18:26:06;;;;;;;9.23;3.00;;;12.30;14.80;;;;;;10353388;28;20212;-77
2023/10/12 18:31:28;;;;;;;5.23;2.23;;;12.20;1.00;;;;;;10354116;28;20215;-77
2023/10/12 18:36:49;;;;;;;10.37;2.87;;;12.20;85.50;;;;;;10339840;28;20315;-77
2023/10/12 18:42:15;;;;;;;8.07;2.50;;;12.20;99.90;;;;;;10343740;28;20224;-77
2023/10/12 18:47:37;;;;;;;7.17;2.50;;;12.20;99.90;;;;;;10340473;28;20196;-77
2023/10/12 18:52:58;;;;;;;8.60;2.57;;;12.20;99.90;;;;;;10350889;28;20238;-77
2023/10/12 18:58:20;;;;;;;7.27;2.27;;;12.10;99.90;;;;;;10345064;28;20447;-77
2023/10/12 19:03:43;;;;;;;10.10;2.60;;;12.10;99.90;;;;;;10331683;28;20221;-77
2023/10/12 19:09:04;;;;;;;6.13;2.90;;;12.10;1.00;;;;;;10337751;28;20222;-77
2023/10/12 19:14:25;;;;;;;9.87;2.37;;;12.00;1.00;;;;;;10342402;28;20281;-77
2023/10/12 19:19:46;;;;;;;8.80;2.70;;;11.90;1.00;;;;;;10362151;28;20203;-77
2023/10/12 19:25:11;;;;;;;8.40;2.60;;;11.80;3.00;;;;;;10360104;28;20200;-77
2023/10/12 19:30:33;;;;;;;11.70;3.73;;;11.70;99.90;;;;;;10360871;28;20463;-77
2023/10/12 19:35:55;;;;;;;12.87;3.03;;;11.60;1.00;;;;;;10360250;28;20235;-77
2023/10/12 19:41:17;;;;;;;9.73;2.90;;;11.60;1.00;;;;;;10345265;28;20237;-77
2023/10/12 19:46:38;;;;;;;6.20;2.67;;;11.50;1.00;;;;;;10359088;28;20195;-77
2023/10/12 19:52:00;;;;;;;7.40;2.50;;;11.50;1.00;;;;;;10322608;28;20230;-77
2023/10/12 19:57:26;;;;;;;10.67;3.10;;;11.40;1.00;;;;;;10338755;28;20249;-76
2023/10/12 20:02:49;;;;;;;13.03;2.30;;;11.30;1.00;;;;;;10340916;28;20510;-77
2023/10/12 20:08:12;;;;;;;10.47;3.20;;;11.30;99.90;;;;;;10358530;28;20231;-76
2023/10/12 20:13:33;;;;;;;11.50;4.10;;;11.20;99.90;;;;;;10328643;28;20242;-77
2023/10/12 20:18:57;;;;;;;13.43;3.97;;;11.20;1.00;;;;;;10337793;28;20213;-77
2023/10/12 20:24:18;;;;;;;10.93;3.17;;;11.20;1.00;;;;;;10357202;28;20251;-77
2023/10/12 20:29:59;;;;;;;9.73;3.17;;;11.10;99.90;;;;;;10359864;28;20203;-77
2023/10/12 20:35:21;;;;;;;13.80;3.67;;;11.10;1.00;;;;;;10343782;28;20257;-77
2023/10/12 20:40:46;;;;;;;11.30;3.47;;;11.10;99.90;;;;;;10344498;28;20282;-77
2023/10/12 20:46:07;;;;;;;10.87;3.20;;;11.10;99.90;;;;;;10358474;28;20196;-77
2023/10/12 20:51:29;;;;;;;9.87;3.30;;;11.10;99.90;;;;;;10358342;28;20232;-76
2023/10/12 20:56:51;;;;;;;15.27;4.20;;;11.10;99.90;;;;;;10343792;28;20199;-77
2023/10/12 21:02:12;;;;;;;7.03;3.30;;;11.00;99.90;;;;;;10357905;28;20439;-77
2023/10/12 21:07:33;;;;;;;12.80;4.20;;;11.10;1.00;;;;;;10344850;28;20272;-77
2023/10/12 21:12:55;;;;;;;9.77;3.30;;;11.00;1.00;;;;;;10357314;28;20298;-77
2023/10/12 21:18:20;;;;;;;11.33;3.40;;;11.10;99.90;;;;;;10337450;28;20283;-77
2023/10/12 21:23:47;;;;;;;7.00;2.93;;;11.00;1.00;;;;;;10355230;28;20506;-77
2023/10/12 21:29:17;;;;;;;8.93;3.23;;;10.90;99.90;;;;;;10357347;28;20578;-78
2023/10/12 21:34:39;;;;;;;8.50;3.03;;;10.80;1.00;;;;;;10356122;28;20239;-77
2023/10/12 21:45:48;;;;;;;9.43;2.60;;;10.70;99.90;;;;;;10356153;28;20196;-77
2023/10/12 21:51:10;;;;;;;6.47;2.27;;;10.60;1.00;;;;;;10367561;28;20220;-76
2023/10/12 21:56:32;;;;;;;9.37;2.47;;;10.50;1.00;;;;;;10354109;28;20516;-77
2023/10/12 22:02:12;;;;;;;6.27;2.10;;;10.40;1.00;;;;;;10355079;28;20226;-77
2023/10/12 22:07:38;;;;;;;12.40;3.40;;;10.40;1.00;;;;;;10354007;28;20492;-76
2023/10/12 22:13:08;;;;;;;9.57;2.63;;;10.40;1.00;;;;;;10354878;28;20223;-77
2023/10/12 22:18:32;;;;;;;11.23;6.33;;;10.30;1.00;;;;;;10349120;28;20390;-76
2023/10/12 22:23:54;;;;;;;10.80;4.60;;;10.30;1.00;;;;;;10353652;28;20294;-76
2023/10/12 22:29:16;;;;;;;11.87;4.10;;;10.20;77.20;;;;;;10354448;28;20219;-76
2023/10/12 22:34:40;;;;;;;7.47;2.20;;;10.20;39.20;;;;;;10354303;28;20247;-77
2023/10/12 22:40:01;;;;;;;9.53;2.90;;;10.20;89.20;;;;;;10352438;28;20211;-77
2023/10/12 22:45:24;;;;;;;9.60;2.23;;;10.10;99.90;;;;;;10354108;28;20253;-76
2023/10/12 22:50:45;;;;;;;9.07;2.53;;;10.10;99.90;;;;;;10353612;28;20245;-76
2023/10/12 22:56:09;;;;;;;7.67;2.37;;;10.10;99.90;;;;;;10352946;28;20407;-76
2023/10/12 23:01:30;;;;;;;11.20;3.03;;;10.10;99.90;;;;;;10353629;28;20200;-76
2023/10/12 23:06:52;;;;;;;7.30;2.40;;;10.00;99.90;;;;;;10353204;28;20205;-77
2023/10/12 23:12:18;;;;;;;10.03;2.70;;;10.00;49.20;;;;;;10347905;28;20420;-77
2023/10/12 23:17:47;;;;;;;6.30;2.50;;;10.00;94.90;;;;;;10353115;28;20205;-77
2023/10/12 23:23:11;;;;;;;9.40;3.03;;;10.00;99.90;;;;;;10352202;28;20208;-77
2023/10/12 23:28:33;;;;;;;8.40;2.37;;;9.90;1.00;;;;;;10299111;28;20492;-77
2023/10/12 23:33:58;;;;;;;11.37;2.43;;;9.90;1.00;;;;;;10313224;28;20421;-77
2023/10/12 23:39:27;;;;;;;6.37;2.37;;;9.90;1.00;;;;;;10327101;28;20518;-77
2023/10/12 23:55:34;;;;;;;8.73;2.93;;;9.80;1.00;;;;;;10360259;28;20276;-76
